Wetterdaten: Woche 03.05.21 - 09.05.21 (KW18)
Datum Zeit Temp. A. Feuchte A. Luftdruck Regen Wind Richtung Sonnenschein ET UV Solar Taupunkt Windchill Windben
03.05.2021 00:00 4,5 C 94 % 1020,6 hPa 0,0 l/m 2,4 km/h (1 Bft) SW 0,00 h 0,000 mm 0,0 UV-I 0 W/m 3,6 C 4,5 C 9,1 km/h (2 Bft)
03.05.2021 01:00 4,4 C 93 % 1021,0 hPa 0,0 l/m 3,3 km/h (1 Bft) S-SW 0,00 h 0,000 mm 0,0 UV-I 0 W/m 3,3 C 4,4 C 10,8 km/h (2 Bft)
03.05.2021 02:00 4,6 C 94 % 1021,0 hPa 0,0 l/m 4,6 km/h (1 Bft) SW 0,00 h 0,000 mm 0,0 UV-I 0 W/m 3,7 C 4,4 C 13,2 km/h (3 Bft)
03.05.2021 03:00 4,5 C 94 % 1021,0 hPa 0,0 l/m 4,6 km/h (1 Bft) SW 0,00 h 0,000 mm 0,0 UV-I 0 W/m 3,6 C 4,4 C 13,4 km/h (3 Bft)
03.05.2021 04:00 4,3 C 94 % 1021,1 hPa 0,0 l/m 1,7 km/h (1 Bft) S-SW 0,00 h 0,000 mm 0,0 UV-I 0 W/m 3,4 C 4,3 C 7,1 km/h (2 Bft)
03.05.2021 05:00 3,9 C 94 % 1021,3 hPa 0,0 l/m 0,5 km/h (0 Bft) SW 0,00 h 0,000 mm 0,0 UV-I 0 W/m 3,0 C 3,9 C 4,0 km/h (1 Bft)
03.05.2021 06:00 3,7 C 95 % 1021,5 hPa 0,0 l/m 0,1 km/h (0 Bft) N 0,00 h 0,000 mm 0,0 UV-I 11 W/m 3,0 C 3,7 C 1,5 km/h (1 Bft)
03.05.2021 07:00 4,3 C 95 % 1022,1 hPa 0,0 l/m 0,8 km/h (0 Bft) SW 0,25 h 0,000 mm 0,0 UV-I 71 W/m 3,6 C 4,3 C 4,2 km/h (1 Bft)
03.05.2021 08:00 5,3 C 94 % 1022,4 hPa 0,0 l/m 4,1 km/h (1 Bft) S 0,75 h 0,025 mm 0,6 UV-I 142 W/m 4,4 C 5,2 C 12,2 km/h (2 Bft)
03.05.2021 09:00 6,7 C 88 % 1022,6 hPa 0,0 l/m 5,8 km/h (2 Bft) S 1,00 h 0,051 mm 1,1 UV-I 321 W/m 4,8 C 6,5 C 12,1 km/h (2 Bft)
03.05.2021 10:00 8,3 C 80 % 1022,7 hPa 0,0 l/m 5,4 km/h (1 Bft) S-SW 1,00 h 0,153 mm 1,8 UV-I 410 W/m 5,1 C 8,2 C 12,6 km/h (3 Bft)
03.05.2021 11:00 10,5 C 68 % 1022,3 hPa 0,0 l/m 8,7 km/h (2 Bft) S 1,00 h 0,203 mm 3,2 UV-I 794 W/m 4,8 C 8,9 C 17,6 km/h (3 Bft)
03.05.2021 12:00 11,2 C 59 % 1021,8 hPa 0,0 l/m 9,6 km/h (2 Bft) SW 1,00 h 0,355 mm 3,7 UV-I 737 W/m 3,6 C 9,2 C 18,9 km/h (3 Bft)
03.05.2021 13:00 12,2 C 52 % 1021,0 hPa 0,0 l/m 9,7 km/h (2 Bft) S 1,00 h 0,407 mm 4,0 UV-I 824 W/m 2,7 C 10,2 C 18,6 km/h (3 Bft)
03.05.2021 14:00 13,2 C 47 % 1020,4 hPa 0,0 l/m 8,3 km/h (2 Bft) S-SW 1,00 h 0,457 mm 3,9 UV-I 824 W/m 2,1 C 11,8 C 18,9 km/h (3 Bft)
03.05.2021 15:00 13,5 C 45 % 1019,5 hPa 0,0 l/m 7,4 km/h (2 Bft) S-SW 1,00 h 0,457 mm 2,9 UV-I 648 W/m 1,8 C 12,7 C 15,6 km/h (3 Bft)
03.05.2021 16:00 13,4 C 45 % 1018,7 hPa 0,0 l/m 6,0 km/h (2 Bft) SW 1,00 h 0,356 mm 1,9 UV-I 416 W/m 1,6 C 12,9 C 13,0 km/h (3 Bft)
03.05.2021 17:00 14,2 C 41 % 1018,0 hPa 0,0 l/m 6,8 km/h (2 Bft) SW 1,00 h 0,279 mm 1,4 UV-I 532 W/m 1,1 C 13,7 C 15,0 km/h (3 Bft)
03.05.2021 18:00 13,8 C 40 % 1017,5 hPa 0,0 l/m 7,6 km/h (2 Bft) S-SW 1,00 h 0,305 mm 0,7 UV-I 313 W/m 0,3 C 13,1 C 14,9 km/h (3 Bft)
03.05.2021 19:00 12,7 C 44 % 1017,0 hPa 0,0 l/m 6,0 km/h (2 Bft) SW 0,42 h 0,203 mm 0,0 UV-I 87 W/m 0,6 C 12,4 C 11,1 km/h (2 Bft)
03.05.2021 20:00 10,0 C 59 % 1016,5 hPa 0,0 l/m 1,6 km/h (1 Bft) SW 0,00 h 0,076 mm 0,0 UV-I 10 W/m 2,2 C 10,0 C 4,0 km/h (1 Bft)
03.05.2021 21:00 6,0 C 76 % 1016,3 hPa 0,0 l/m 1,2 km/h (1 Bft) SW 0,00 h 0,026 mm 0,0 UV-I 0 W/m 2,1 C 6,0 C 2,9 km/h (1 Bft)
03.05.2021 22:00 4,0 C 83 % 1016,0 hPa 0,0 l/m 0,9 km/h (0 Bft) SW 0,00 h 0,025 mm 0,0 UV-I 0 W/m 1,3 C 4,0 C 2,4 km/h (1 Bft)
03.05.2021 23:00 3,1 C 86 % 1015,4 hPa 0,0 l/m 1,4 km/h (1 Bft) SW 0,00 h 0,000 mm 0,0 UV-I 0 W/m 1,0 C 3,1 C 3,1 km/h (1 Bft)
04.05.2021 00:00 2,6 C 87 % 1014,9 hPa 0,0 l/m 0,4 km/h (0 Bft) SW 0,00 h 0,000 mm 0,0 UV-I 0 W/m 0,7 C 2,6 C 1,0 km/h (0 Bft)
04.05.2021 01:00 1,9 C 89 % 1014,3 hPa 0,0 l/m 0,3 km/h (0 Bft) S-SW 0,00 h 0,000 mm 0,0 UV-I 0 W/m 0,3 C 1,9 C 1,2 km/h (1 Bft)
04.05.2021 02:00 1,6 C 90 % 1013,9 hPa 0,0 l/m 0,5 km/h (0 Bft) S-SW 0,00 h 0,000 mm 0,0 UV-I 0 W/m 0,2 C 1,6 C 2,0 km/h (1 Bft)
04.05.2021 03:00 1,0 C 91 % 1013,2 hPa 0,0 l/m 0,8 km/h (0 Bft) S-SO 0,00 h 0,000 mm 0,0 UV-I 0 W/m -0,2 C 1,0 C 2,8 km/h (1 Bft)
04.05.2021 04:00 0,8 C 93 % 1012,8 hPa 0,0 l/m 0,9 km/h (0 Bft) S-SO 0,00 h 0,000 mm 0,0 UV-I 0 W/m -0,2 C 0,8 C 4,3 km/h (1 Bft)
04.05.2021 05:00 4,6 C 90 % 1012,0 hPa 0,0 l/m 3,2 km/h (1 Bft) S-SW 0,00 h 0,000 mm 0,0 UV-I 0 W/m 3,0 C 4,6 C 9,1 km/h (2 Bft)
04.05.2021 06:00 6,4 C 79 % 1011,4 hPa 0,0 l/m 5,9 km/h (2 Bft) S 0,00 h 0,000 mm 0,0 UV-I 19 W/m 2,9 C 6,1 C 13,6 km/h (3 Bft)
04.05.2021 07:00 7,9 C 73 % 1011,1 hPa 0,0 l/m 9,6 km/h (2 Bft) S-SW 0,25 h 0,025 mm 0,0 UV-I 84 W/m 3,3 C 5,6 C 21,6 km/h (4 Bft)
04.05.2021 08:00 9,1 C 69 % 1010,8 hPa 0,0 l/m 10,9 km/h (2 Bft) S-SW 1,00 h 0,077 mm 0,5 UV-I 150 W/m 3,6 C 6,0 C 23,3 km/h (4 Bft)
04.05.2021 09:00 10,5 C 67 % 1010,6 hPa 0,0 l/m 12,2 km/h (2 Bft) S-SW 1,00 h 0,101 mm 1,1 UV-I 256 W/m 4,6 C 7,1 C 24,7 km/h (4 Bft)
04.05.2021 10:00 13,2 C 58 % 1010,0 hPa 0,0 l/m 15,4 km/h (3 Bft) S-SW 1,00 h 0,178 mm 2,3 UV-I 454 W/m 5,1 C 9,0 C 33,5 km/h (5 Bft)
04.05.2021 11:00 15,2 C 51 % 1009,6 hPa 0,0 l/m 21,1 km/h (4 Bft) SW 1,00 h 0,305 mm 3,7 UV-I 708 W/m 5,2 C 9,8 C 40,0 km/h (6 Bft)
04.05.2021 12:00 15,7 C 50 % 1008,9 hPa 0,0 l/m 20,5 km/h (4 Bft) S-SW 1,00 h 0,508 mm 3,3 UV-I 595 W/m 5,3 C 10,6 C 36,3 km/h (5 Bft)
04.05.2021 13:00 15,9 C 49 % 1008,4 hPa 0,0 l/m 22,8 km/h (4 Bft) SW 1,00 h 0,432 mm 3,7 UV-I 632 W/m 5,1 C 10,3 C 44,7 km/h (6 Bft)
04.05.2021 14:00 16,1 C 47 % 1007,8 hPa 0,0 l/m 22,7 km/h (4 Bft) S-SW 1,00 h 0,482 mm 2,8 UV-I 460 W/m 4,7 C 10,5 C 41,7 km/h (6 Bft)
04.05.2021 15:00 15,9 C 45 % 1007,0 hPa 0,0 l/m 23,3 km/h (4 Bft) S-SW 1,00 h 0,381 mm 1,8 UV-I 311 W/m 4,0 C 10,2 C 46,5 km/h (6 Bft)
04.05.2021 16:00 16,1 C 44 % 1006,2 hPa 0,0 l/m 16,5 km/h (3 Bft) SW 1,00 h 0,330 mm 1,4 UV-I 301 W/m 3,8 C 12,2 C 32,9 km/h (5 Bft)
04.05.2021 17:00 15,7 C 46 % 1005,8 hPa 0,0 l/m 15,6 km/h (3 Bft) S-SW 0,50 h 0,280 mm 0,6 UV-I 111 W/m 4,0 C 12,0 C 33,6 km/h (5 Bft)
04.05.2021 18:00 15,1 C 51 % 1005,9 hPa 0,0 l/m 12,6 km/h (3 Bft) W 0,58 h 0,178 mm 0,5 UV-I 113 W/m 5,0 C 12,2 C 28,2 km/h (4 Bft)
04.05.2021 19:00 13,5 C 60 % 1006,1 hPa 0,0 l/m 8,6 km/h (2 Bft) SW 0,00 h 0,127 mm 0,0 UV-I 31 W/m 5,9 C 12,2 C 19,4 km/h (3 Bft)
04.05.2021 20:00 12,1 C 69 % 1006,4 hPa 0,2 l/m 10,6 km/h (2 Bft) SW 0,00 h 0,050 mm 0,0 UV-I 9 W/m 6,5 C 9,7 C 23,9 km/h (4 Bft)
04.05.2021 21:00 10,9 C 78 % 1006,7 hPa 0,4 l/m 10,7 km/h (2 Bft) S-SW 0,00 h 0,051 mm 0,0 UV-I 0 W/m 7,3 C 8,3 C 22,2 km/h (4 Bft)
04.05.2021 22:00 10,4 C 81 % 1006,3 hPa 0,2 l/m 8,3 km/h (2 Bft) SW 0,00 h 0,026 mm 0,0 UV-I 0 W/m 7,3 C 9,0 C 16,2 km/h (3 Bft)
04.05.2021 23:00 10,4 C 80 % 1005,6 hPa 0,0 l/m 8,4 km/h (2 Bft) S-SW 0,00 h 0,025 mm 0,0 UV-I 0 W/m 7,1 C 9,0 C 18,6 km/h (3 Bft)
05.05.2021 00:00 10,1 C 79 % 1004,9 hPa 0,0 l/m 8,2 km/h (2 Bft) S-SW 0,00 h 0,000 mm 0,0 UV-I 0 W/m 6,7 C 8,9 C 17,2 km/h (3 Bft)
05.05.2021 01:00 10,1 C 80 % 1004,1 hPa 0,0 l/m 6,9 km/h (2 Bft) S-SW 0,00 h 0,025 mm 0,0 UV-I 0 W/m 6,7 C 9,6 C 15,6 km/h (3 Bft)
05.05.2021 02:00 9,5 C 85 % 1003,4 hPa 0,4 l/m 7,1 km/h (2 Bft) S 0,00 h 0,026 mm 0,0 UV-I 0 W/m 7,1 C 8,9 C 15,2 km/h (3 Bft)
05.05.2021 03:00 8,9 C 89 % 1002,6 hPa 0,4 l/m 5,0 km/h (1 Bft) S-SW 0,00 h 0,025 mm 0,0 UV-I 0 W/m 7,2 C 8,8 C 11,1 km/h (2 Bft)
05.05.2021 04:00 8,7 C 91 % 1002,0 hPa 2,4 l/m 6,8 km/h (2 Bft) S-SW 0,00 h 0,000 mm 0,0 UV-I 0 W/m 7,4 C 8,1 C 14,4 km/h (3 Bft)
05.05.2021 05:00 8,6 C 92 % 1001,8 hPa 1,8 l/m 6,9 km/h (2 Bft) S-SW 0,00 h 0,000 mm 0,0 UV-I 0 W/m 7,4 C 7,9 C 16,6 km/h (3 Bft)
05.05.2021 06:00 6,5 C 92 % 1002,9 hPa 2,0 l/m 7,2 km/h (2 Bft) W 0,00 h 0,000 mm 0,0 UV-I 7 W/m 5,3 C 5,2 C 15,7 km/h (3 Bft)
05.05.2021 07:00 5,8 C 93 % 1004,1 hPa 0,6 l/m 2,3 km/h (1 Bft) W 0,08 h 0,000 mm 0,0 UV-I 46 W/m 4,7 C 5,8 C 11,7 km/h (2 Bft)
05.05.2021 08:00 6,3 C 93 % 1004,7 hPa 0,0 l/m 4,6 km/h (1 Bft) SW 0,92 h 0,026 mm 0,3 UV-I 135 W/m 5,2 C 6,0 C 13,2 km/h (3 Bft)
05.05.2021 09:00 6,9 C 91 % 1005,5 hPa 0,0 l/m 4,1 km/h (1 Bft) SW 0,58 h 0,050 mm 0,6 UV-I 120 W/m 5,6 C 6,9 C 12,1 km/h (2 Bft)
05.05.2021 10:00 7,1 C 89 % 1005,9 hPa 0,4 l/m 5,9 km/h (2 Bft) SW 0,42 h 0,051 mm 0,4 UV-I 97 W/m 5,4 C 6,7 C 14,8 km/h (3 Bft)
05.05.2021 11:00 7,4 C 87 % 1006,4 hPa 0,2 l/m 7,4 km/h (2 Bft) SW 1,00 h 0,051 mm 1,9 UV-I 291 W/m 5,3 C 6,6 C 17,4 km/h (3 Bft)
05.05.2021 12:00 10,0 C 68 % 1006,9 hPa 0,0 l/m 12,2 km/h (2 Bft) SW 1,00 h 0,152 mm 3,4 UV-I 712 W/m 4,3 C 6,7 C 28,4 km/h (4 Bft)
05.05.2021 13:00 10,2 C 57 % 1007,7 hPa 0,0 l/m 12,7 km/h (3 Bft) SW 1,00 h 0,381 mm 2,6 UV-I 368 W/m 2,1 C 6,5 C 28,7 km/h (4 Bft)
05.05.2021 14:00 11,0 C 51 % 1008,3 hPa 0,0 l/m 16,3 km/h (3 Bft) W-SW 1,00 h 0,254 mm 3,7 UV-I 758 W/m 1,1 C 6,0 C 33,4 km/h (5 Bft)
05.05.2021 15:00 11,7 C 43 % 1008,7 hPa 0,0 l/m 16,1 km/h (3 Bft) SW 1,00 h 0,458 mm 2,5 UV-I 518 W/m -0,4 C 6,8 C 34,2 km/h (5 Bft)
05.05.2021 16:00 9,9 C 59 % 1010,0 hPa 0,0 l/m 13,1 km/h (3 Bft) W 1,00 h 0,330 mm 1,3 UV-I 291 W/m 2,1 C 6,0 C 28,4 km/h (4 Bft)
05.05.2021 17:00 10,6 C 53 % 1010,1 hPa 0,0 l/m 12,4 km/h (3 Bft) SW 1,00 h 0,203 mm 1,3 UV-I 424 W/m 1,5 C 7,2 C 29,8 km/h (5 Bft)
05.05.2021 18:00 10,9 C 49 % 1010,2 hPa 0,0 l/m 9,9 km/h (2 Bft) SW 0,75 h 0,279 mm 0,6 UV-I 248 W/m 0,6 C 8,6 C 22,5 km/h (4 Bft)
05.05.2021 19:00 8,6 C 59 % 1010,9 hPa 0,0 l/m 12,4 km/h (3 Bft) W 0,42 h 0,153 mm 0,0 UV-I 79 W/m 1,0 C 4,9 C 25,5 km/h (4 Bft)
05.05.2021 20:00 6,7 C 68 % 1011,3 hPa 0,0 l/m 5,6 km/h (1 Bft) W 0,00 h 0,076 mm 0,0 UV-I 20 W/m 1,3 C 5,8 C 14,8 km/h (3 Bft)
05.05.2021 21:00 5,4 C 74 % 1012,1 hPa 0,0 l/m 0,1 km/h (0 Bft) N 0,00 h 0,025 mm 0,0 UV-I 0 W/m 1,2 C 5,4 C 0,9 km/h (0 Bft)
05.05.2021 22:00 4,2 C 82 % 1012,7 hPa 0,0 l/m 0,1 km/h (0 Bft) N 0,00 h 0,026 mm 0,0 UV-I 0 W/m 1,4 C 4,2 C 1,5 km/h (1 Bft)
05.05.2021 23:00 3,9 C 85 % 1012,7 hPa 0,0 l/m 0,0 km/h (0 Bft) N 0,00 h 0,000 mm 0,0 UV-I 0 W/m 1,6 C 3,9 C 0,0 km/h (0 Bft)
06.05.2021 00:00 4,2 C 87 % 1012,4 hPa 0,0 l/m 0,2 km/h (0 Bft) N 0,00 h 0,000 mm 0,0 UV-I 0 W/m 2,2 C 4,2 C 1,7 km/h (1 Bft)
06.05.2021 01:00 4,6 C 86 % 1012,2 hPa 0,0 l/m 0,1 km/h (0 Bft) N 0,00 h 0,000 mm 0,0 UV-I 0 W/m 2,4 C 4,6 C 0,8 km/h (0 Bft)
06.05.2021 02:00 5,2 C 83 % 1012,1 hPa 0,0 l/m 0,4 km/h (0 Bft) S-SW 0,00 h 0,000 mm 0,0 UV-I 0 W/m 2,5 C 5,2 C 3,6 km/h (1 Bft)
06.05.2021 03:00 5,3 C 80 % 1011,8 hPa 0,0 l/m 0,5 km/h (0 Bft) S 0,00 h 0,000 mm 0,0 UV-I 0 W/m 2,2 C 5,3 C 2,4 km/h (1 Bft)
06.05.2021 04:00 4,2 C 86 % 1011,5 hPa 0,0 l/m 0,0 km/h (0 Bft) N 0,00 h 0,000 mm 0,0 UV-I 0 W/m 2,1 C 4,2 C 0,0 km/h (0 Bft)
06.05.2021 05:00 3,9 C 89 % 1011,2 hPa 0,0 l/m 0,0 km/h (0 Bft) N 0,00 h 0,000 mm 0,0 UV-I 0 W/m 2,2 C 3,9 C 0,0 km/h (0 Bft)
06.05.2021 06:00 4,9 C 86 % 1010,8 hPa 0,0 l/m 0,2 km/h (0 Bft) S 0,00 h 0,000 mm 0,0 UV-I 18 W/m 2,7 C 4,9 C 1,7 km/h (1 Bft)
06.05.2021 07:00 6,3 C 79 % 1010,7 hPa 0,0 l/m 0,6 km/h (0 Bft) S 0,00 h 0,000 mm 0,0 UV-I 54 W/m 2,9 C 6,3 C 4,8 km/h (1 Bft)
06.05.2021 08:00 7,9 C 72 % 1010,2 hPa 0,0 l/m 2,8 km/h (1 Bft) S 0,92 h 0,025 mm 0,7 UV-I 169 W/m 3,1 C 7,9 C 11,1 km/h (2 Bft)
06.05.2021 09:00 10,1 C 61 % 1009,3 hPa 0,0 l/m 8,0 km/h (2 Bft) S 1,00 h 0,077 mm 1,1 UV-I 244 W/m 2,9 C 8,9 C 19,2 km/h (3 Bft)
06.05.2021 10:00 10,7 C 60 % 1009,0 hPa 0,0 l/m 6,4 km/h (2 Bft) S-SW 1,00 h 0,152 mm 1,2 UV-I 258 W/m 3,1 C 10,1 C 17,7 km/h (3 Bft)
06.05.2021 11:00 9,6 C 68 % 1009,4 hPa 0,2 l/m 9,1 km/h (2 Bft) SW 1,00 h 0,152 mm 0,8 UV-I 145 W/m 4,0 C 7,7 C 20,0 km/h (4 Bft)
06.05.2021 12:00 8,3 C 81 % 1009,1 hPa 0,6 l/m 7,0 km/h (2 Bft) S-SW 1,00 h 0,102 mm 0,8 UV-I 129 W/m 5,2 C 7,4 C 16,2 km/h (3 Bft)
06.05.2021 13:00 7,6 C 86 % 1008,7 hPa 1,2 l/m 7,7 km/h (2 Bft) S 1,00 h 0,076 mm 0,9 UV-I 154 W/m 5,4 C 6,5 C 16,9 km/h (3 Bft)
06.05.2021 14:00 7,5 C 89 % 1007,8 hPa 1,2 l/m 6,7 km/h (2 Bft) SW 1,00 h 0,076 mm 0,8 UV-I 131 W/m 5,8 C 6,9 C 14,4 km/h (3 Bft)
06.05.2021 15:00 7,4 C 91 % 1007,1 hPa 1,4 l/m 6,7 km/h (2 Bft) S 0,67 h 0,051 mm 0,6 UV-I 108 W/m 6,0 C 6,9 C 14,4 km/h (3 Bft)
06.05.2021 16:00 7,5 C 92 % 1006,1 hPa 0,8 l/m 4,8 km/h (1 Bft) S 0,08 h 0,051 mm 0,4 UV-I 80 W/m 6,3 C 7,5 C 12,8 km/h (3 Bft)
06.05.2021 17:00 7,6 C 93 % 1005,1 hPa 0,8 l/m 4,9 km/h (1 Bft) S-SO 0,00 h 0,025 mm 0,0 UV-I 65 W/m 6,5 C 7,4 C 12,1 km/h (2 Bft)
06.05.2021 18:00 8,3 C 93 % 1004,6 hPa 0,6 l/m 13,2 km/h (3 Bft) S-SO 0,17 h 0,026 mm 0,0 UV-I 63 W/m 7,1 C 4,0 C 28,8 km/h (5 Bft)
06.05.2021 19:00 8,7 C 92 % 1004,2 hPa 0,4 l/m 16,3 km/h (3 Bft) S 0,08 h 0,051 mm 0,0 UV-I 58 W/m 7,5 C 3,0 C 34,2 km/h (5 Bft)
06.05.2021 20:00 9,1 C 93 % 1004,4 hPa 0,8 l/m 15,2 km/h (3 Bft) S-SW 0,00 h 0,025 mm 0,0 UV-I 9 W/m 8,0 C 4,1 C 34,6 km/h (5 Bft)
06.05.2021 21:00 8,6 C 92 % 1005,8 hPa 3,0 l/m 11,5 km/h (2 Bft) S-SW 0,00 h 0,000 mm 0,0 UV-I 0 W/m 7,3 C 5,3 C 23,3 km/h (4 Bft)
06.05.2021 22:00 8,5 C 92 % 1006,4 hPa 0,6 l/m 12,4 km/h (3 Bft) S-SW 0,00 h 0,000 mm 0,0 UV-I 0 W/m 7,2 C 4,6 C 23,4 km/h (4 Bft)
06.05.2021 23:00 8,2 C 93 % 1006,9 hPa 0,0 l/m 12,0 km/h (2 Bft) S 0,00 h 0,000 mm 0,0 UV-I 0 W/m 7,1 C 4,5 C 26,0 km/h (4 Bft)
07.05.2021 00:00 8,3 C 92 % 1007,4 hPa 0,0 l/m 13,5 km/h (3 Bft) SW 0,00 h 0,000 mm 0,0 UV-I 0 W/m 7,1 C 3,8 C 26,2 km/h (4 Bft)
07.05.2021 01:00 8,2 C 93 % 1007,4 hPa 1,2 l/m 11,5 km/h (2 Bft) S-SW 0,00 h 0,000 mm 0,0 UV-I 0 W/m 7,1 C 4,7 C 22,8 km/h (4 Bft)
07.05.2021 02:00 7,7 C 93 % 1007,4 hPa 1,0 l/m 12,0 km/h (2 Bft) SW 0,00 h 0,000 mm 0,0 UV-I 0 W/m 6,6 C 3,9 C 22,9 km/h (4 Bft)
07.05.2021 03:00 7,0 C 93 % 1007,0 hPa 0,0 l/m 5,8 km/h (2 Bft) S-SW 0,00 h 0,000 mm 0,0 UV-I 0 W/m 5,9 C 6,7 C 13,0 km/h (3 Bft)
07.05.2021 04:00 7,1 C 93 % 1007,2 hPa 1,0 l/m 5,7 km/h (1 Bft) SW 0,00 h 0,000 mm 0,0 UV-I 0 W/m 6,1 C 6,6 C 13,0 km/h (3 Bft)
07.05.2021 05:00 7,0 C 93 % 1007,6 hPa 2,0 l/m 5,3 km/h (1 Bft) SW 0,00 h 0,000 mm 0,0 UV-I 0 W/m 6,0 C 6,9 C 13,4 km/h (3 Bft)
07.05.2021 06:00 6,9 C 94 % 1008,0 hPa 0,4 l/m 4,9 km/h (1 Bft) SW 0,00 h 0,000 mm 0,0 UV-I 19 W/m 6,0 C 6,5 C 15,4 km/h (3 Bft)
07.05.2021 07:00 7,0 C 94 % 1008,2 hPa 0,0 l/m 6,4 km/h (2 Bft) S-SW 0,17 h 0,000 mm 0,0 UV-I 66 W/m 6,1 C 6,1 C 14,0 km/h (3 Bft)
07.05.2021 08:00 7,2 C 93 % 1008,9 hPa 3,2 l/m 7,4 km/h (2 Bft) W 0,00 h 0,025 mm 0,0 UV-I 17 W/m 6,2 C 6,0 C 16,8 km/h (3 Bft)
07.05.2021 09:00 6,0 C 93 % 1010,2 hPa 1,0 l/m 6,9 km/h (2 Bft) NW 0,58 h 0,026 mm 0,7 UV-I 134 W/m 5,0 C 5,2 C 15,4 km/h (3 Bft)
07.05.2021 10:00 6,4 C 92 % 1011,2 hPa 0,0 l/m 8,3 km/h (2 Bft) W 1,00 h 0,051 mm 1,0 UV-I 210 W/m 5,3 C 4,9 C 18,2 km/h (3 Bft)
07.05.2021 11:00 8,0 C 86 % 1012,4 hPa 0,0 l/m 8,8 km/h (2 Bft) W 1,00 h 0,101 mm 2,3 UV-I 393 W/m 5,8 C 6,1 C 19,7 km/h (3 Bft)
07.05.2021 12:00 8,1 C 80 % 1013,6 hPa 0,0 l/m 9,7 km/h (2 Bft) W-SW 1,00 h 0,178 mm 1,8 UV-I 287 W/m 4,7 C 5,7 C 23,9 km/h (4 Bft)
07.05.2021 13:00 10,1 C 67 % 1014,5 hPa 0,0 l/m 12,6 km/h (3 Bft) W 1,00 h 0,152 mm 3,7 UV-I 665 W/m 4,3 C 6,4 C 26,5 km/h (4 Bft)
07.05.2021 14:00 10,2 C 62 % 1015,1 hPa 0,0 l/m 11,0 km/h (2 Bft) W 1,00 h 0,331 mm 3,0 UV-I 611 W/m 3,3 C 7,3 C 23,5 km/h (4 Bft)
07.05.2021 15:00 11,4 C 56 % 1015,6 hPa 0,0 l/m 11,4 km/h (2 Bft) W 1,00 h 0,304 mm 2,8 UV-I 597 W/m 2,9 C 8,6 C 23,7 km/h (4 Bft)
07.05.2021 16:00 11,6 C 53 % 1016,1 hPa 0,0 l/m 11,9 km/h (2 Bft) W 1,00 h 0,356 mm 1,9 UV-I 484 W/m 2,3 C 8,4 C 24,1 km/h (4 Bft)
07.05.2021 17:00 12,1 C 49 % 1016,5 hPa 0,0 l/m 11,8 km/h (2 Bft) W 1,00 h 0,279 mm 1,3 UV-I 497 W/m 1,6 C 9,1 C 23,6 km/h (4 Bft)
07.05.2021 18:00 12,0 C 47 % 1016,8 hPa 0,0 l/m 9,9 km/h (2 Bft) W 1,00 h 0,305 mm 0,6 UV-I 291 W/m 1,1 C 9,9 C 20,0 km/h (4 Bft)
07.05.2021 19:00 11,1 C 48 % 1017,2 hPa 0,0 l/m 5,7 km/h (1 Bft) W-SW 0,50 h 0,203 mm 0,0 UV-I 121 W/m 0,6 C 10,8 C 12,6 km/h (3 Bft)
07.05.2021 20:00 8,5 C 62 % 1017,6 hPa 0,0 l/m 0,1 km/h (0 Bft) N 0,00 h 0,077 mm 0,0 UV-I 12 W/m 1,4 C 8,5 C 0,5 km/h (0 Bft)
07.05.2021 21:00 5,1 C 76 % 1018,3 hPa 0,0 l/m 0,3 km/h (0 Bft) W-SW 0,00 h 0,000 mm 0,0 UV-I 0 W/m 1,3 C 5,1 C 0,7 km/h (0 Bft)
07.05.2021 22:00 3,0 C 84 % 1018,7 hPa 0,0 l/m 0,0 km/h (0 Bft) N 0,00 h 0,025 mm 0,0 UV-I 0 W/m 0,5 C 3,0 C 0,0 km/h (0 Bft)
07.05.2021 23:00 1,9 C 88 % 1018,8 hPa 0,0 l/m 0,0 km/h (0 Bft) N 0,00 h 0,000 mm 0,0 UV-I 0 W/m 0,1 C 1,9 C 0,0 km/h (0 Bft)
08.05.2021 00:00 1,6 C 90 % 1019,1 hPa 0,0 l/m 0,0 km/h (0 Bft) N 0,00 h 0,000 mm 0,0 UV-I 0 W/m 0,2 C 1,6 C 0,0 km/h (0 Bft)
08.05.2021 01:00 2,1 C 92 % 1019,1 hPa 0,0 l/m 0,0 km/h (0 Bft) N 0,00 h 0,000 mm 0,0 UV-I 0 W/m 0,9 C 2,1 C 0,0 km/h (0 Bft)
08.05.2021 02:00 1,0 C 91 % 1019,0 hPa 0,0 l/m 0,0 km/h (0 Bft) N 0,00 h 0,000 mm 0,0 UV-I 0 W/m -0,3 C 1,0 C 0,0 km/h (0 Bft)
08.05.2021 03:00 0,6 C 92 % 1019,0 hPa 0,0 l/m 0,0 km/h (0 Bft) N 0,00 h 0,000 mm 0,0 UV-I 0 W/m -0,5 C 0,6 C 0,0 km/h (0 Bft)
08.05.2021 04:00 1,0 C 93 % 1018,7 hPa 0,0 l/m 0,0 km/h (0 Bft) N 0,00 h 0,000 mm 0,0 UV-I 0 W/m 0,0 C 1,0 C 0,0 km/h (0 Bft)
08.05.2021 05:00 0,3 C 93 % 1018,6 hPa 0,0 l/m 0,0 km/h (0 Bft) N 0,00 h 0,000 mm 0,0 UV-I 4 W/m -0,7 C 0,3 C 0,0 km/h (0 Bft)
08.05.2021 06:00 0,3 C 94 % 1018,6 hPa 0,0 l/m 0,0 km/h (0 Bft) N 0,00 h 0,000 mm 0,0 UV-I 15 W/m -0,6 C 0,3 C 0,0 km/h (0 Bft)
08.05.2021 07:00 1,4 C 94 % 1018,8 hPa 0,0 l/m 1,2 km/h (1 Bft) W-SW 0,00 h 0,000 mm 0,0 UV-I 25 W/m 0,6 C 1,4 C 3,2 km/h (1 Bft)
08.05.2021 08:00 3,6 C 93 % 1018,8 hPa 0,0 l/m 2,0 km/h (1 Bft) W 0,00 h 0,000 mm 0,0 UV-I 36 W/m 2,6 C 3,6 C 4,5 km/h (1 Bft)
08.05.2021 09:00 7,0 C 83 % 1018,6 hPa 0,0 l/m 0,8 km/h (0 Bft) W 0,58 h 0,025 mm 1,3 UV-I 254 W/m 4,3 C 7,0 C 2,4 km/h (1 Bft)
08.05.2021 10:00 11,6 C 69 % 1018,4 hPa 0,0 l/m 2,8 km/h (1 Bft) SO 1,00 h 0,127 mm 3,1 UV-I 580 W/m 6,0 C 11,6 C 6,6 km/h (2 Bft)
08.05.2021 11:00 14,4 C 57 % 1018,1 hPa 0,0 l/m 7,0 km/h (2 Bft) S-SW 1,00 h 0,280 mm 4,7 UV-I 739 W/m 5,9 C 13,9 C 15,2 km/h (3 Bft)
08.05.2021 12:00 15,1 C 54 % 1017,7 hPa 0,0 l/m 7,0 km/h (2 Bft) S 1,00 h 0,406 mm 5,6 UV-I 801 W/m 5,9 C 14,6 C 17,2 km/h (3 Bft)
08.05.2021 13:00 16,1 C 49 % 1016,9 hPa 0,0 l/m 7,9 km/h (2 Bft) S 1,00 h 0,457 mm 6,1 UV-I 868 W/m 5,2 C 15,2 C 18,3 km/h (3 Bft)
08.05.2021 14:00 17,1 C 45 % 1016,4 hPa 0,0 l/m 7,3 km/h (2 Bft) S 1,00 h 0,483 mm 5,9 UV-I 854 W/m 5,1 C 16,5 C 16,1 km/h (3 Bft)
08.05.2021 15:00 17,7 C 44 % 1015,7 hPa 0,0 l/m 7,1 km/h (2 Bft) S-SW 1,00 h 0,533 mm 4,0 UV-I 607 W/m 5,2 C 17,2 C 16,2 km/h (3 Bft)
08.05.2021 16:00 18,5 C 43 % 1014,9 hPa 0,0 l/m 5,6 km/h (1 Bft) S-SO 1,00 h 0,381 mm 3,3 UV-I 644 W/m 5,5 C 18,4 C 13,6 km/h (3 Bft)
08.05.2021 17:00 19,0 C 43 % 1014,2 hPa 0,0 l/m 7,1 km/h (2 Bft) S-SW 1,00 h 0,407 mm 1,8 UV-I 447 W/m 6,2 C 18,6 C 16,5 km/h (3 Bft)
08.05.2021 18:00 18,3 C 47 % 1013,7 hPa 0,0 l/m 4,5 km/h (1 Bft) S 1,00 h 0,305 mm 0,6 UV-I 159 W/m 6,6 C 18,2 C 11,7 km/h (2 Bft)
08.05.2021 19:00 17,9 C 48 % 1013,3 hPa 0,0 l/m 3,4 km/h (1 Bft) S 0,50 h 0,127 mm 0,0 UV-I 105 W/m 6,8 C 17,9 C 8,3 km/h (2 Bft)
08.05.2021 20:00 15,3 C 61 % 1013,2 hPa 0,0 l/m 0,6 km/h (0 Bft) S 0,00 h 0,076 mm 0,0 UV-I 11 W/m 7,7 C 15,3 C 1,5 km/h (1 Bft)
08.05.2021 21:00 11,1 C 76 % 1013,5 hPa 0,0 l/m 0,0 km/h (0 Bft) N 0,00 h 0,025 mm 0,0 UV-I 0 W/m 7,0 C 11,1 C 0,0 km/h (0 Bft)
08.05.2021 22:00 8,7 C 83 % 1013,4 hPa 0,0 l/m 0,0 km/h (0 Bft) N 0,00 h 0,026 mm 0,0 UV-I 0 W/m 6,0 C 8,7 C 0,0 km/h (0 Bft)
08.05.2021 23:00 7,3 C 87 % 1013,3 hPa 0,0 l/m 0,7 km/h (0 Bft) S 0,00 h 0,000 mm 0,0 UV-I 0 W/m 5,2 C 7,3 C 1,6 km/h (1 Bft)
09.05.2021 00:00 6,9 C 86 % 1013,2 hPa 0,0 l/m 0,3 km/h (0 Bft) S 0,00 h 0,000 mm 0,0 UV-I 0 W/m 4,8 C 6,9 C 0,8 km/h (0 Bft)
09.05.2021 01:00 6,2 C 87 % 1013,0 hPa 0,0 l/m 0,0 km/h (0 Bft) N 0,00 h 0,000 mm 0,0 UV-I 0 W/m 4,2 C 6,2 C 0,0 km/h (0 Bft)
09.05.2021 02:00 5,5 C 89 % 1012,6 hPa 0,0 l/m 0,0 km/h (0 Bft) N 0,00 h 0,000 mm 0,0 UV-I 0 W/m 3,8 C 5,5 C 0,0 km/h (0 Bft)
09.05.2021 03:00 5,0 C 91 % 1012,2 hPa 0,0 l/m 0,0 km/h (0 Bft) N 0,00 h 0,000 mm 0,0 UV-I 0 W/m 3,6 C 5,0 C 0,0 km/h (0 Bft)
09.05.2021 04:00 4,5 C 92 % 1011,9 hPa 0,0 l/m 0,0 km/h (0 Bft) N 0,00 h 0,000 mm 0,0 UV-I 0 W/m 3,2 C 4,5 C 0,0 km/h (0 Bft)
09.05.2021 05:00 4,5 C 93 % 1011,7 hPa 0,0 l/m 0,0 km/h (0 Bft) N 0,00 h 0,000 mm 0,0 UV-I 0 W/m 3,4 C 4,5 C 0,0 km/h (0 Bft)
09.05.2021 06:00 4,0 C 93 % 1011,5 hPa 0,0 l/m 0,0 km/h (0 Bft) N 0,00 h 0,000 mm 0,0 UV-I 12 W/m 3,0 C 4,0 C 0,0 km/h (0 Bft)
09.05.2021 07:00 5,4 C 94 % 1011,4 hPa 0,0 l/m 0,0 km/h (0 Bft) N 0,00 h 0,000 mm 0,0 UV-I 21 W/m 4,6 C 5,4 C 0,1 km/h (0 Bft)
09.05.2021 08:00 9,9 C 90 % 1011,4 hPa 0,0 l/m 0,0 km/h (0 Bft) N 0,00 h 0,000 mm 0,0 UV-I 29 W/m 8,4 C 9,9 C 0,0 km/h (0 Bft)
09.05.2021 09:00 15,0 C 70 % 1011,0 hPa 0,0 l/m 1,2 km/h (1 Bft) SO 0,50 h 0,025 mm 2,1 UV-I 271 W/m 9,6 C 15,0 C 4,7 km/h (1 Bft)
09.05.2021 10:00 20,5 C 54 % 1010,3 hPa 0,0 l/m 3,6 km/h (1 Bft) SO 1,00 h 0,178 mm 3,5 UV-I 562 W/m 10,8 C 20,5 C 9,0 km/h (2 Bft)
09.05.2021 11:00 24,2 C 40 % 1009,6 hPa 0,0 l/m 6,3 km/h (2 Bft) O 1,00 h 0,356 mm 5,0 UV-I 717 W/m 9,7 C 24,1 C 14,0 km/h (3 Bft)
09.05.2021 12:00 26,0 C 33 % 1008,8 hPa 0,0 l/m 6,2 km/h (2 Bft) O 1,00 h 0,508 mm 6,1 UV-I 833 W/m 8,4 C 25,9 C 15,0 km/h (3 Bft)
09.05.2021 13:00 26,8 C 30 % 1008,1 hPa 0,0 l/m 7,7 km/h (2 Bft) O 1,00 h 0,609 mm 6,6 UV-I 876 W/m 7,5 C 26,4 C 16,2 km/h (3 Bft)
09.05.2021 14:00 27,9 C 28 % 1007,2 hPa 0,0 l/m 5,6 km/h (1 Bft) O 1,00 h 0,661 mm 6,1 UV-I 842 W/m 7,5 C 27,9 C 13,4 km/h (3 Bft)
09.05.2021 15:00 28,2 C 25 % 1006,2 hPa 0,0 l/m 5,6 km/h (1 Bft) SO 1,00 h 0,609 mm 4,5 UV-I 683 W/m 6,3 C 28,2 C 14,0 km/h (3 Bft)
09.05.2021 16:00 28,2 C 24 % 1005,4 hPa 0,0 l/m 3,6 km/h (1 Bft) S-SO 1,00 h 0,508 mm 3,1 UV-I 558 W/m 5,4 C 28,2 C 10,6 km/h (2 Bft)
09.05.2021 17:00 27,5 C 27 % 1004,8 hPa 0,0 l/m 4,8 km/h (1 Bft) O 1,00 h 0,407 mm 1,6 UV-I 353 W/m 6,7 C 27,5 C 13,7 km/h (3 Bft)
09.05.2021 18:00 26,5 C 30 % 1004,4 hPa 0,0 l/m 4,6 km/h (1 Bft) O-SO 1,00 h 0,305 mm 0,8 UV-I 293 W/m 7,3 C 26,5 C 13,7 km/h (3 Bft)
09.05.2021 19:00 24,2 C 38 % 1004,4 hPa 0,0 l/m 3,3 km/h (1 Bft) S 0,58 h 0,254 mm 0,0 UV-I 105 W/m 8,9 C 24,2 C 10,3 km/h (2 Bft)
09.05.2021 20:00 20,9 C 46 % 1004,7 hPa 0,0 l/m 3,7 km/h (1 Bft) S 0,00 h 0,101 mm 0,0 UV-I 14 W/m 8,8 C 20,9 C 10,5 km/h (2 Bft)
09.05.2021 21:00 18,0 C 53 % 1005,0 hPa 0,0 l/m 1,6 km/h (1 Bft) S 0,00 h 0,051 mm 0,0 UV-I 0 W/m 8,3 C 18,0 C 5,5 km/h (1 Bft)
09.05.2021 22:00 15,4 C 63 % 1005,2 hPa 0,0 l/m 0,2 km/h (0 Bft) N 0,00 h 0,051 mm 0,0 UV-I 0 W/m 8,3 C 15,4 C 2,5 km/h (1 Bft)
09.05.2021 23:00 12,5 C 74 % 1005,3 hPa 0,0 l/m 0,1 km/h (0 Bft) N 0,00 h 0,025 mm 0,0 UV-I 0 W/m 7,9 C 12,5 C 0,4 km/h (0 Bft)
Min-Datum _ 08.05.21 09.05.21 05.05.21 - 03.05.21 - - - - - 05.05.21 08.05.21 03.05.21
_ Min-Zeit 06:05 15:35 05:20 - 04:35 - - - - - 15:45 06:00 04:35
Minimum _ -0,1 C 20 % 1001,6 hPa - 0,0 km/h (0 Bft) - - - - - -1,5 C -0,1 C 0,0 km/h (0 Bft)
Max-Datum _ 09.05.21 03.05.21 03.05.21 07.05.21 04.05.21 - 04.05.21 09.05.21 08.05.21 07.05.21 09.05.21 09.05.21 04.05.21
_ Max-Zeit 16:45 06:05 10:20 08:35 15:20 - 10:10 14:05 13:45 14:25 10:55 16:45 13:25
Maximum _ 28,6 C 95 % 1022,8 hPa 3,2 l/m 28,2 km/h
S-SW (4 Bft)
- 0,17 h 0,661 mm 6,7 UV-I 1078 W/m 11,4 C 28,6 C 61,2 km/h
SW (7 Bft)
Durchschnitt _ 9,6 C 73 % 1011,9 hPa #30,4 l/m 6,0 km/h (2 Bft) SW #70:15 h #21,133 mm 2,3 UV-I 196 W/m 4,2 C 8,5 C 13,4 km/h (3 Bft)